Time;durP1;ratioP1;P1;durP2;ratioP2;P2;SDS_P1;SDS_P2;PMS_P1;PMS_P2;Temp;Humidity;BMP_temperature;BMP_pressure;BME280_temperature;BME280_humidity;BME280_pressure;Samples;Min_cycle;Max_cycle;Signal;HPM_P1;HPM_P2
2023/04/24 00:00:09;;;;;;;1.17;0.60;;;14.10;65.30;;;;;;4983422;28;20041;-62
2023/04/24 00:02:37;;;;;;;0.82;0.80;;;14.10;65.50;;;;;;4983365;28;20051;-62
2023/04/24 00:05:04;;;;;;;0.73;0.70;;;14.10;65.70;;;;;;4987111;28;20046;-62
2023/04/24 00:07:30;;;;;;;0.70;0.70;;;14.00;65.80;;;;;;4986918;28;20377;-61
2023/04/24 00:09:55;;;;;;;1.10;0.60;;;14.00;66.00;;;;;;4983690;28;20030;-61
2023/04/24 00:12:21;;;;;;;0.85;0.80;;;14.00;66.00;;;;;;4984824;28;20039;-62
2023/04/24 00:14:47;;;;;;;1.17;0.70;;;14.00;66.00;;;;;;4980672;28;20121;-61
2023/04/24 00:17:13;;;;;;;3.08;0.82;;;14.00;66.10;;;;;;4984776;28;20081;-61
2023/04/24 00:19:38;;;;;;;0.77;0.77;;;14.00;66.20;;;;;;4987757;28;20093;-62
2023/04/24 00:22:05;;;;;;;0.95;0.80;;;14.00;66.20;;;;;;4985966;28;20090;-61
2023/04/24 00:24:30;;;;;;;0.82;0.80;;;14.00;66.40;;;;;;4988644;28;20058;-61
2023/04/24 00:26:56;;;;;;;0.95;0.80;;;14.00;66.40;;;;;;4985197;28;20465;-61
2023/04/24 00:29:22;;;;;;;1.52;1.00;;;14.00;66.40;;;;;;4980515;28;20385;-61
2023/04/24 00:31:48;;;;;;;2.90;0.90;;;14.00;66.50;;;;;;4990303;28;20038;-60
2023/04/24 00:34:13;;;;;;;1.00;0.90;;;14.00;66.60;;;;;;4981993;28;20053;-61
2023/04/24 00:36:40;;;;;;;1.98;0.90;;;13.90;66.50;;;;;;4985822;28;20409;-61
2023/04/24 00:39:08;;;;;;;1.40;1.17;;;13.90;66.20;;;;;;4988276;28;20050;-60
2023/04/24 00:41:35;;;;;;;1.20;1.10;;;13.90;66.20;;;;;;4981839;28;20030;-61
2023/04/24 00:44:01;;;;;;;1.10;1.00;;;13.90;66.30;;;;;;4985598;28;20046;-60
2023/04/24 00:46:27;;;;;;;1.52;1.13;;;13.90;66.30;;;;;;4984865;28;20038;-61
2023/04/24 00:48:53;;;;;;;3.08;1.10;;;13.80;66.20;;;;;;4987525;28;20115;-61
2023/04/24 00:51:19;;;;;;;1.42;1.00;;;13.80;66.10;;;;;;4982273;28;20061;-62
2023/04/24 00:53:45;;;;;;;2.70;1.20;;;13.80;65.90;;;;;;4981963;28;20500;-62
2023/04/24 00:56:11;;;;;;;2.05;1.20;;;13.80;65.80;;;;;;4982318;28;20060;-62
2023/04/24 00:58:37;;;;;;;1.13;1.00;;;13.80;66.00;;;;;;4990761;28;20026;-62
2023/04/24 01:01:06;;;;;;;1.90;1.00;;;13.70;66.10;;;;;;4983639;28;20041;-61
2023/04/24 01:03:33;;;;;;;1.50;0.90;;;13.70;66.10;;;;;;4981052;28;20512;-61
2023/04/24 01:05:59;;;;;;;1.52;0.93;;;13.70;65.90;;;;;;4982189;28;20058;-61
2023/04/24 01:08:27;;;;;;;1.20;0.82;;;13.70;66.10;;;;;;4986787;28;20406;-62
2023/04/24 01:10:53;;;;;;;1.88;1.08;;;13.70;66.30;;;;;;4983903;28;20023;-61
2023/04/24 01:13:20;;;;;;;1.05;0.90;;;13.60;66.30;;;;;;4986379;28;20496;-62
2023/04/24 01:15:46;;;;;;;1.13;0.85;;;13.60;66.10;;;;;;4988561;28;20031;-61
2023/04/24 01:18:12;;;;;;;3.10;1.10;;;13.60;66.10;;;;;;4981233;28;20132;-62
2023/04/24 01:20:40;;;;;;;2.28;1.30;;;13.60;66.00;;;;;;4981870;28;20034;-61
2023/04/24 01:23:07;;;;;;;1.88;1.13;;;13.60;66.00;;;;;;4985813;28;20023;-62
2023/04/24 01:25:32;;;;;;;2.92;1.20;;;13.60;66.20;;;;;;4990438;28;20166;-61
2023/04/24 01:27:59;;;;;;;1.17;1.08;;;13.50;66.20;;;;;;4981932;28;20035;-61
2023/04/24 01:30:25;;;;;;;2.35;1.00;;;13.50;66.30;;;;;;4979963;28;20033;-61
2023/04/24 01:32:52;;;;;;;2.55;0.80;;;13.50;66.50;;;;;;4978587;28;20027;-62
2023/04/24 01:35:17;;;;;;;0.88;0.85;;;13.50;66.60;;;;;;4982502;28;20165;-61
2023/04/24 01:37:44;;;;;;;1.58;0.95;;;13.50;66.60;;;;;;4987227;28;20027;-61
2023/04/24 01:40:10;;;;;;;2.03;0.93;;;13.50;66.70;;;;;;4980187;28;20059;-61
2023/04/24 01:42:36;;;;;;;1.10;0.90;;;13.50;66.80;;;;;;4933760;28;20027;-61
2023/04/24 01:45:03;;;;;;;1.95;1.10;;;13.50;66.80;;;;;;4985566;28;20417;-62
2023/04/24 01:47:30;;;;;;;1.10;0.90;;;13.50;66.60;;;;;;4985003;28;20014;-61
2023/04/24 01:49:57;;;;;;;1.60;1.00;;;13.50;66.80;;;;;;4980467;28;20685;-61
2023/04/24 01:52:22;;;;;;;0.77;0.77;;;13.50;66.90;;;;;;4980879;28;20034;-62
2023/04/24 01:54:48;;;;;;;1.10;0.98;;;13.50;66.80;;;;;;4982002;28;20034;-61
2023/04/24 01:57:15;;;;;;;2.97;0.95;;;13.50;66.90;;;;;;4983609;28;20027;-61
2023/04/24 01:59:41;;;;;;;1.00;0.90;;;13.50;66.90;;;;;;4987908;28;20034;-61
2023/04/24 02:02:07;;;;;;;1.23;1.10;;;13.50;67.10;;;;;;4988228;28;22127;-61
2023/04/24 02:04:32;;;;;;;1.60;1.00;;;13.50;67.20;;;;;;4981700;28;20050;-61
2023/04/24 02:06:58;;;;;;;1.08;0.93;;;13.50;67.20;;;;;;4981945;28;20023;-61
2023/04/24 02:09:24;;;;;;;1.38;0.88;;;13.50;67.20;;;;;;4982183;28;20575;-61
2023/04/24 02:11:50;;;;;;;1.23;0.95;;;13.50;67.30;;;;;;4985027;28;20113;-61
2023/04/24 02:14:16;;;;;;;2.90;1.35;;;13.50;67.30;;;;;;4986331;28;20074;-61
2023/04/24 02:16:42;;;;;;;1.25;1.02;;;13.50;67.30;;;;;;4980121;28;20054;-61
2023/04/24 02:19:07;;;;;;;1.95;1.13;;;13.50;67.20;;;;;;4987466;28;20035;-61
2023/04/24 02:21:33;;;;;;;3.17;1.58;;;13.50;66.90;;;;;;4978641;28;20054;-61
2023/04/24 02:23:59;;;;;;;5.00;1.30;;;13.40;66.80;;;;;;4986561;28;20050;-62
2023/04/24 02:26:25;;;;;;;1.88;1.40;;;13.40;66.80;;;;;;4986006;28;20030;-61
2023/04/24 02:28:50;;;;;;;1.90;1.20;;;13.40;66.70;;;;;;4978185;28;20022;-61
2023/04/24 02:31:16;;;;;;;3.72;1.60;;;13.30;66.60;;;;;;4987371;28;20041;-62
2023/04/24 02:33:41;;;;;;;2.00;1.10;;;13.30;66.70;;;;;;4988484;28;20038;-61
2023/04/24 02:36:07;;;;;;;8.80;1.38;;;13.30;66.80;;;;;;4991119;28;20042;-62
2023/04/24 02:38:33;;;;;;;2.08;1.40;;;13.30;66.90;;;;;;4981462;28;20090;-62
2023/04/24 02:40:58;;;;;;;2.80;1.70;;;13.20;67.00;;;;;;4986154;28;20034;-63
2023/04/24 02:43:24;;;;;;;4.57;1.50;;;13.20;67.20;;;;;;4992931;28;20031;-63
2023/04/24 02:45:50;;;;;;;3.63;1.17;;;13.20;67.30;;;;;;4976118;28;20035;-62
2023/04/24 02:48:16;;;;;;;2.13;1.50;;;13.20;67.30;;;;;;4980470;28;20066;-62
2023/04/24 02:50:42;;;;;;;2.25;1.80;;;13.20;67.30;;;;;;4987783;28;20054;-62
2023/04/24 02:53:08;;;;;;;3.63;1.70;;;13.20;67.40;;;;;;4982509;28;20031;-63
2023/04/24 02:55:33;;;;;;;0.98;0.98;;;13.20;67.50;;;;;;4986031;28;20071;-62
2023/04/24 02:58:00;;;;;;;1.58;1.20;;;13.20;67.60;;;;;;4987323;28;20413;-62
2023/04/24 03:00:25;;;;;;;1.80;1.30;;;13.20;67.50;;;;;;4983232;28;20026;-61
2023/04/24 03:02:51;;;;;;;3.35;1.25;;;13.20;67.60;;;;;;4984425;28;20033;-63
2023/04/24 03:05:17;;;;;;;1.75;1.30;;;13.20;67.60;;;;;;4990699;28;20019;-62
2023/04/24 03:07:42;;;;;;;1.48;1.27;;;13.20;67.50;;;;;;4985966;28;20034;-63
2023/04/24 03:10:08;;;;;;;1.25;1.15;;;13.20;67.40;;;;;;4984903;28;20484;-62
2023/04/24 03:12:34;;;;;;;1.63;1.30;;;13.20;67.20;;;;;;4987922;28;20477;-62
2023/04/24 03:15:01;;;;;;;1.48;1.30;;;13.20;67.30;;;;;;4985797;28;20045;-62
2023/04/24 03:17:27;;;;;;;2.55;1.40;;;13.20;67.40;;;;;;4983940;28;20031;-62
2023/04/24 03:19:52;;;;;;;3.53;1.30;;;13.20;67.40;;;;;;4984246;28;20030;-63
2023/04/24 03:22:18;;;;;;;2.38;1.40;;;13.10;67.30;;;;;;4987521;28;20015;-63
2023/04/24 03:24:43;;;;;;;1.23;1.02;;;13.10;67.50;;;;;;4986598;28;20578;-62
2023/04/24 03:27:09;;;;;;;1.27;1.00;;;13.10;67.70;;;;;;4984902;28;20023;-62
2023/04/24 03:29:35;;;;;;;3.55;1.30;;;13.10;68.30;;;;;;4990308;28;20030;-62
2023/04/24 03:32:00;;;;;;;1.58;1.20;;;13.10;67.70;;;;;;4994166;28;20080;-61
2023/04/24 03:34:26;;;;;;;3.10;1.42;;;13.10;67.70;;;;;;4985416;28;20089;-61
2023/04/24 03:36:52;;;;;;;1.60;1.15;;;13.10;67.70;;;;;;4987392;28;20654;-62
2023/04/24 03:39:18;;;;;;;6.53;1.58;;;13.10;67.50;;;;;;4985434;28;20047;-61
2023/04/24 03:41:44;;;;;;;4.18;1.50;;;13.10;67.60;;;;;;4982557;28;20034;-61
2023/04/24 03:44:09;;;;;;;1.85;1.40;;;13.10;67.60;;;;;;4987913;28;20035;-61
2023/04/24 03:46:35;;;;;;;1.95;1.52;;;13.10;67.70;;;;;;4981395;28;20050;-61
2023/04/24 03:49:01;;;;;;;4.82;1.70;;;13.10;67.60;;;;;;4983575;28;20027;-62
2023/04/24 03:51:27;;;;;;;2.47;1.77;;;13.10;67.80;;;;;;4982795;28;20030;-61
2023/04/24 03:53:53;;;;;;;3.65;1.92;;;13.10;67.80;;;;;;4987636;28;20015;-60
2023/04/24 03:56:20;;;;;;;3.88;2.35;;;13.00;67.80;;;;;;4982261;28;20106;-61
2023/04/24 03:58:46;;;;;;;4.55;2.55;;;13.00;67.90;;;;;;4987763;28;20100;-61
2023/04/24 04:01:11;;;;;;;3.25;2.10;;;13.00;68.70;;;;;;4993471;28;20113;-61
2023/04/24 04:03:37;;;;;;;2.08;1.58;;;13.00;68.00;;;;;;4993857;28;20023;-61
2023/04/24 04:06:03;;;;;;;1.45;1.30;;;13.00;68.10;;;;;;4983630;28;20054;-61
2023/04/24 04:08:29;;;;;;;2.30;1.50;;;13.10;68.20;;;;;;4989443;28;20026;-60
2023/04/24 04:10:54;;;;;;;6.40;2.42;;;13.10;68.20;;;;;;4983268;28;20023;-61
2023/04/24 04:13:20;;;;;;;6.50;4.32;;;13.10;68.00;;;;;;4990718;28;20510;-61
2023/04/24 04:15:46;;;;;;;10.25;5.72;;;13.10;68.10;;;;;;4983944;28;20059;-61
2023/04/24 04:18:11;;;;;;;10.75;4.38;;;13.10;68.20;;;;;;4990093;28;20087;-62
2023/04/24 04:20:37;;;;;;;8.73;4.35;;;13.10;68.20;;;;;;4995510;28;20023;-61
2023/04/24 04:23:03;;;;;;;5.85;3.58;;;13.00;68.10;;;;;;4994519;28;20053;-61
2023/04/24 04:25:28;;;;;;;9.85;3.47;;;13.00;68.10;;;;;;4982118;28;20039;-62
2023/04/24 04:27:54;;;;;;;6.13;3.60;;;13.10;68.30;;;;;;4985130;28;20023;-60
2023/04/24 04:30:20;;;;;;;5.28;3.22;;;13.00;68.40;;;;;;4982923;28;20059;-61
2023/04/24 04:32:46;;;;;;;5.50;3.80;;;13.00;68.50;;;;;;4983690;28;20031;-60
2023/04/24 04:35:12;;;;;;;5.63;3.85;;;13.00;68.30;;;;;;4989008;28;20030;-62
2023/04/24 04:37:39;;;;;;;4.82;3.55;;;13.00;68.40;;;;;;4983227;28;20026;-61
2023/04/24 04:40:06;;;;;;;4.93;3.25;;;13.00;68.30;;;;;;4982375;28;20054;-62
2023/04/24 04:42:33;;;;;;;6.13;2.45;;;13.00;68.20;;;;;;4987016;28;20102;-62
2023/04/24 04:45:00;;;;;;;3.70;2.10;;;13.00;68.40;;;;;;4987794;28;20031;-62
2023/04/24 04:47:26;;;;;;;2.40;1.77;;;13.00;68.50;;;;;;4989118;28;20019;-61
2023/04/24 04:49:52;;;;;;;2.38;1.45;;;13.10;68.70;;;;;;4987632;28;20054;-61
2023/04/24 04:52:18;;;;;;;2.35;1.73;;;13.10;68.70;;;;;;4982595;28;20082;-62
2023/04/24 04:54:44;;;;;;;2.55;1.58;;;13.10;68.60;;;;;;4983656;28;20042;-61
2023/04/24 04:57:10;;;;;;;1.73;1.40;;;13.10;68.70;;;;;;4991508;28;20038;-61
2023/04/24 04:59:37;;;;;;;4.20;1.15;;;13.10;68.70;;;;;;4985248;28;20038;-61
2023/04/24 05:02:02;;;;;;;2.08;1.48;;;13.10;68.50;;;;;;4991301;28;20102;-61
2023/04/24 05:04:28;;;;;;;1.77;1.13;;;13.10;68.60;;;;;;4992241;28;20027;-61
2023/04/24 05:06:54;;;;;;;5.63;1.40;;;13.10;68.50;;;;;;4989063;28;20026;-62
2023/04/24 05:09:19;;;;;;;1.35;1.25;;;13.10;68.60;;;;;;4994341;28;20049;-61
2023/04/24 05:11:45;;;;;;;2.67;1.23;;;13.10;68.60;;;;;;4990695;28;20122;-62
2023/04/24 05:14:12;;;;;;;5.38;1.25;;;13.10;68.70;;;;;;4990548;28;20035;-61
2023/04/24 05:16:38;;;;;;;2.38;1.60;;;13.10;68.80;;;;;;4985835;28;20054;-62
2023/04/24 05:19:04;;;;;;;1.80;1.10;;;13.10;68.70;;;;;;4988877;28;20042;-61
2023/04/24 05:21:30;;;;;;;1.58;1.10;;;13.10;69.10;;;;;;4985927;28;20062;-61
2023/04/24 05:23:56;;;;;;;2.50;1.27;;;13.10;68.60;;;;;;4995454;28;20034;-61
2023/04/24 05:26:22;;;;;;;1.88;1.20;;;13.10;68.50;;;;;;4983130;28;20034;-62
2023/04/24 05:28:48;;;;;;;1.23;1.05;;;13.10;68.80;;;;;;4994029;28;20026;-61
2023/04/24 05:31:14;;;;;;;3.03;1.60;;;13.10;68.90;;;;;;4986501;28;20065;-60
2023/04/24 05:33:39;;;;;;;4.03;1.55;;;13.10;69.00;;;;;;4985714;28;20023;-61
2023/04/24 05:36:06;;;;;;;1.48;1.20;;;13.10;68.70;;;;;;4985211;28;20035;-62
2023/04/24 05:38:32;;;;;;;1.38;1.20;;;13.10;68.90;;;;;;4985817;28;20033;-61
2023/04/24 05:40:57;;;;;;;2.67;1.38;;;13.20;69.20;;;;;;4981367;28;20046;-61
2023/04/24 05:43:23;;;;;;;2.38;1.20;;;13.20;69.20;;;;;;4989306;28;20075;-62
2023/04/24 05:45:49;;;;;;;1.98;1.40;;;13.20;69.00;;;;;;4985286;28;20022;-61
2023/04/24 05:48:15;;;;;;;1.50;1.10;;;13.20;68.80;;;;;;4991839;28;20038;-61
2023/04/24 05:50:41;;;;;;;2.72;1.38;;;13.30;68.90;;;;;;4987920;28;20485;-61
2023/04/24 05:53:07;;;;;;;2.25;1.33;;;13.30;68.80;;;;;;4985104;28;20086;-61
2023/04/24 05:55:33;;;;;;;2.30;1.60;;;13.30;68.90;;;;;;4986235;28;20545;-61
2023/04/24 05:57:58;;;;;;;2.63;1.70;;;13.30;68.60;;;;;;4981183;28;20038;-61
2023/04/24 06:00:25;;;;;;;2.67;1.63;;;13.30;68.50;;;;;;4984659;28;20377;-61
2023/04/24 06:02:52;;;;;;;3.35;1.42;;;13.30;68.50;;;;;;4988355;28;20026;-63
2023/04/24 06:05:18;;;;;;;2.13;1.45;;;13.30;68.50;;;;;;4988899;28;20033;-64
2023/04/24 06:07:44;;;;;;;2.47;1.00;;;13.30;68.30;;;;;;4980700;28;20027;-65
2023/04/24 06:10:10;;;;;;;0.82;0.70;;;13.30;65.50;;;;;;4983805;28;20034;-65
2023/04/24 06:12:36;;;;;;;0.80;0.80;;;13.20;64.60;;;;;;4986275;28;20027;-65
2023/04/24 06:15:02;;;;;;;0.85;0.50;;;13.00;64.40;;;;;;4989150;28;20573;-64
2023/04/24 06:17:28;;;;;;;4.10;0.80;;;12.80;64.70;;;;;;4986358;28;20026;-62
2023/04/24 06:19:53;;;;;;;0.75;0.65;;;12.70;65.00;;;;;;4984572;28;20031;-62
2023/04/24 06:22:19;;;;;;;1.80;0.77;;;12.50;65.30;;;;;;4989786;28;20121;-63
2023/04/24 06:24:45;;;;;;;0.90;0.60;;;12.40;65.40;;;;;;4978216;28;20062;-62
2023/04/24 06:27:10;;;;;;;1.92;0.60;;;12.30;65.80;;;;;;4993129;28;20082;-62
2023/04/24 06:29:36;;;;;;;2.13;0.80;;;12.20;66.00;;;;;;4989220;28;20537;-62
2023/04/24 06:32:02;;;;;;;3.50;0.80;;;12.10;65.90;;;;;;4981980;28;20105;-62
2023/04/24 06:34:28;;;;;;;1.67;0.80;;;12.10;66.10;;;;;;4979864;28;20030;-62
2023/04/24 06:36:54;;;;;;;1.05;0.80;;;12.00;66.30;;;;;;4985133;28;20026;-61
2023/04/24 06:39:20;;;;;;;2.40;0.82;;;12.00;66.80;;;;;;4980509;28;20050;-62
2023/04/24 06:41:46;;;;;;;1.63;0.90;;;12.00;67.20;;;;;;4988574;28;20033;-63
2023/04/24 06:44:11;;;;;;;1.63;0.80;;;12.00;67.10;;;;;;4979139;28;20104;-62
2023/04/24 06:46:37;;;;;;;2.28;1.02;;;12.00;67.40;;;;;;4979671;28;20034;-61
2023/04/24 06:49:03;;;;;;;2.92;0.73;;;12.00;67.40;;;;;;4987971;28;20078;-61
2023/04/24 06:51:28;;;;;;;1.67;0.93;;;12.10;67.50;;;;;;4982571;28;20031;-62
2023/04/24 06:53:56;;;;;;;2.78;1.15;;;12.20;67.60;;;;;;4990383;28;20710;-62
2023/04/24 06:56:22;;;;;;;2.85;1.50;;;12.20;67.70;;;;;;4983428;28;20093;-64
2023/04/24 06:58:48;;;;;;;1.30;1.10;;;12.30;67.90;;;;;;4979362;28;20033;-63
2023/04/24 07:01:13;;;;;;;1.15;0.82;;;12.40;67.20;;;;;;4986665;28;20050;-63
2023/04/24 07:03:39;;;;;;;0.90;0.82;;;12.40;66.80;;;;;;4986376;28;20175;-63
2023/04/24 07:06:05;;;;;;;1.13;0.90;;;12.50;67.00;;;;;;4981759;28;20030;-63
2023/04/24 07:08:32;;;;;;;0.82;0.80;;;12.50;67.20;;;;;;4981603;28;20033;-63
2023/04/24 07:10:58;;;;;;;0.90;0.90;;;12.60;67.30;;;;;;4993312;28;20096;-63
2023/04/24 07:13:24;;;;;;;2.22;0.90;;;12.70;67.50;;;;;;4999670;28;20034;-63
2023/04/24 07:15:52;;;;;;;1.63;0.95;;;12.70;67.30;;;;;;4987316;28;20043;-64
2023/04/24 07:18:18;;;;;;;1.00;0.90;;;12.80;67.30;;;;;;4986109;28;20023;-63
2023/04/24 07:20:44;;;;;;;1.15;0.85;;;12.90;67.50;;;;;;4984555;28;20031;-64
2023/04/24 07:23:10;;;;;;;1.73;1.00;;;13.00;67.40;;;;;;4984399;28;20089;-65
2023/04/24 07:25:36;;;;;;;1.90;0.80;;;13.00;67.10;;;;;;4985288;28;20030;-64
2023/04/24 07:28:02;;;;;;;2.35;0.80;;;13.10;67.50;;;;;;4979584;28;20019;-63
2023/04/24 07:30:29;;;;;;;1.70;0.80;;;13.20;67.10;;;;;;4980275;28;20110;-64
2023/04/24 07:32:55;;;;;;;1.63;1.00;;;13.30;66.50;;;;;;4989464;28;20042;-65
2023/04/24 07:35:21;;;;;;;1.58;0.90;;;13.40;66.20;;;;;;4981362;28;20039;-63
2023/04/24 07:37:48;;;;;;;1.05;0.80;;;13.50;65.90;;;;;;4982796;28;20033;-64
2023/04/24 07:40:14;;;;;;;2.67;0.90;;;13.50;65.70;;;;;;4980644;28;20148;-63
2023/04/24 07:42:40;;;;;;;1.45;1.00;;;13.50;65.50;;;;;;4983837;28;20030;-63
2023/04/24 07:45:07;;;;;;;1.95;1.10;;;13.50;65.80;;;;;;4982929;28;20497;-63
2023/04/24 07:47:34;;;;;;;1.77;1.05;;;13.50;65.10;;;;;;4977652;28;20486;-64
2023/04/24 07:49:59;;;;;;;1.23;0.93;;;13.50;65.00;;;;;;4982928;28;20115;-63
2023/04/24 07:52:25;;;;;;;1.70;1.00;;;13.50;65.00;;;;;;4987183;28;20055;-64
2023/04/24 07:54:52;;;;;;;1.10;1.00;;;13.50;64.70;;;;;;4986869;28;20038;-64
2023/04/24 07:57:18;;;;;;;1.17;0.90;;;13.50;64.80;;;;;;4984192;28;20089;-62
2023/04/24 07:59:44;;;;;;;1.33;0.93;;;13.50;64.70;;;;;;4993658;28;20030;-62
2023/04/24 08:02:09;;;;;;;1.20;1.10;;;13.50;65.10;;;;;;4986254;28;20101;-62
2023/04/24 08:04:35;;;;;;;2.08;1.20;;;13.50;65.50;;;;;;4989768;28;20038;-62
2023/04/24 08:07:01;;;;;;;2.35;1.20;;;13.50;65.80;;;;;;4986208;28;20042;-62
2023/04/24 08:09:26;;;;;;;2.15;1.00;;;13.60;65.60;;;;;;4987086;28;20587;-64
2023/04/24 08:11:53;;;;;;;1.45;1.08;;;13.70;66.10;;;;;;4986506;28;20026;-61
2023/04/24 08:14:18;;;;;;;2.22;1.00;;;13.90;66.60;;;;;;4982629;28;20098;-62
2023/04/24 08:16:45;;;;;;;1.33;1.23;;;14.00;65.80;;;;;;4985004;28;20026;-62
2023/04/24 08:19:10;;;;;;;4.28;1.20;;;14.10;64.70;;;;;;4986074;28;20062;-61
2023/04/24 08:21:36;;;;;;;1.65;1.20;;;14.20;64.30;;;;;;4985568;28;20023;-63
2023/04/24 08:24:05;;;;;;;1.23;1.08;;;14.20;63.00;;;;;;4987412;28;20041;-61
2023/04/24 08:26:31;;;;;;;3.40;1.08;;;14.30;62.90;;;;;;4988832;28;20058;-61
2023/04/24 08:28:57;;;;;;;2.25;1.02;;;14.20;62.90;;;;;;4976965;28;20051;-62
2023/04/24 08:31:24;;;;;;;1.38;1.02;;;14.30;62.80;;;;;;4986532;28;20034;-62
2023/04/24 08:33:50;;;;;;;1.52;1.15;;;14.30;62.80;;;;;;4991642;28;20018;-62
2023/04/24 08:36:16;;;;;;;1.42;0.90;;;14.30;62.70;;;;;;4978870;28;20508;-62
2023/04/24 08:38:42;;;;;;;1.30;0.85;;;14.30;62.60;;;;;;4988387;28;20700;-61
2023/04/24 08:41:09;;;;;;;1.08;0.98;;;14.40;62.10;;;;;;4987711;28;20029;-64
2023/04/24 08:43:36;;;;;;;1.83;1.05;;;14.40;62.00;;;;;;4989663;28;20026;-64
2023/04/24 08:46:04;;;;;;;1.27;0.90;;;14.40;61.70;;;;;;4987919;28;20026;-63
2023/04/24 08:48:31;;;;;;;2.15;0.90;;;14.40;61.70;;;;;;4987887;28;20037;-63
2023/04/24 08:50:58;;;;;;;1.10;1.00;;;14.30;62.10;;;;;;4985323;28;20058;-63
2023/04/24 08:53:25;;;;;;;1.65;1.00;;;14.30;61.90;;;;;;4991793;28;20019;-62
2023/04/24 08:55:55;;;;;;;1.23;1.05;;;14.20;61.90;;;;;;4986087;28;20058;-62
2023/04/24 08:58:22;;;;;;;1.85;1.00;;;14.10;61.50;;;;;;4982637;28;20025;-63
2023/04/24 09:00:47;;;;;;;1.10;1.00;;;14.00;61.00;;;;;;4988482;28;20030;-62
2023/04/24 09:03:15;;;;;;;1.40;0.90;;;13.90;60.90;;;;;;4994724;28;20027;-61
2023/04/24 09:05:45;;;;;;;3.88;1.10;;;13.70;61.20;;;;;;4982831;28;20054;-61
2023/04/24 09:08:13;;;;;;;1.48;0.90;;;13.60;61.40;;;;;;4989233;28;20042;-61
2023/04/24 09:10:40;;;;;;;2.00;1.10;;;13.50;62.20;;;;;;4987369;28;20050;-61
2023/04/24 09:13:08;;;;;;;0.73;0.73;;;13.50;63.40;;;;;;4986708;28;20088;-61
2023/04/24 09:15:35;;;;;;;1.05;0.85;;;13.50;63.80;;;;;;4976169;28;20041;-63
2023/04/24 09:18:01;;;;;;;1.77;0.88;;;13.60;63.60;;;;;;4979468;28;20026;-61
2023/04/24 09:20:27;;;;;;;5.00;0.90;;;13.70;63.70;;;;;;4984300;28;20031;-61
2023/04/24 09:22:57;;;;;;;0.80;0.80;;;13.90;64.10;;;;;;4981543;28;20037;-62
2023/04/24 09:25:35;;;;;;;0.80;0.80;;;14.00;64.20;;;;;;4982423;28;20071;-65
2023/04/24 09:28:06;;;;;;;1.52;1.00;;;14.20;63.70;;;;;;4976358;28;20031;-63
2023/04/24 09:30:32;;;;;;;2.42;0.88;;;14.40;62.90;;;;;;4990246;28;20023;-62
2023/04/24 09:33:16;;;;;;;1.65;1.05;;;14.50;62.60;;;;;;4981363;28;20029;-61
2023/04/24 09:35:51;;;;;;;0.98;0.93;;;14.60;61.50;;;;;;4981995;28;20030;-62
2023/04/24 09:38:18;;;;;;;1.08;0.98;;;14.80;61.70;;;;;;4979991;28;20039;-63
2023/04/24 09:40:43;;;;;;;1.33;0.80;;;14.80;61.10;;;;;;4980125;28;20062;-64
2023/04/24 09:43:12;;;;;;;1.30;0.88;;;14.90;61.00;;;;;;4978693;28;20019;-63
2023/04/24 09:45:39;;;;;;;1.38;0.95;;;14.90;60.30;;;;;;4984750;28;20018;-64
2023/04/24 09:48:06;;;;;;;1.13;1.02;;;15.00;59.80;;;;;;4987193;28;20031;-63
2023/04/24 09:50:32;;;;;;;1.67;1.17;;;15.00;59.70;;;;;;4984351;28;20026;-65
2023/04/24 09:53:01;;;;;;;2.05;1.40;;;15.10;59.60;;;;;;4979724;28;20022;-64
2023/04/24 09:55:27;;;;;;;2.58;1.30;;;15.20;58.70;;;;;;4980601;28;20115;-62
2023/04/24 09:57:56;;;;;;;2.20;1.13;;;15.30;58.20;;;;;;4981050;28;20053;-63
2023/04/24 10:00:30;;;;;;;2.90;1.38;;;15.30;56.90;;;;;;4978995;28;20031;-65
2023/04/24 10:02:56;;;;;;;;;;;15.40;56.50;;;;;;4989741;28;20033;-65
2023/04/24 10:05:31;;;;;;;1.30;1.00;;;15.50;54.40;;;;;;4985140;28;19937;-65
2023/04/24 10:08:04;;;;;;;2.20;0.98;;;15.60;52.20;;;;;;4989513;28;20477;-65
2023/04/24 10:10:38;;;;;;;3.20;1.08;;;15.70;53.30;;;;;;4991394;28;20082;-66
2023/04/24 10:13:04;;;;;;;1.33;0.90;;;15.70;52.50;;;;;;4983739;28;20046;-66
2023/04/24 10:15:30;;;;;;;1.48;0.80;;;15.80;53.50;;;;;;4982515;28;20045;-65
2023/04/24 10:18:00;;;;;;;1.00;0.80;;;15.90;52.00;;;;;;4984498;28;20030;-66
2023/04/24 10:20:31;;;;;;;1.10;1.00;;;16.10;53.10;;;;;;4990178;28;20038;-64
2023/04/24 10:22:58;;;;;;;2.60;0.77;;;16.20;52.40;;;;;;4978412;28;20030;-66
2023/04/24 10:25:27;;;;;;;2.40;0.90;;;16.30;52.10;;;;;;4994022;28;20031;-65
2023/04/24 10:27:57;;;;;;;4.20;0.80;;;16.40;52.10;;;;;;4980465;28;20151;-66
2023/04/24 10:30:23;;;;;;;2.97;1.20;;;16.60;53.30;;;;;;4975806;28;20034;-65
2023/04/24 10:32:48;;;;;;;0.80;0.80;;;16.70;50.50;;;;;;4984658;28;20031;-66
2023/04/24 10:35:17;;;;;;;1.48;0.90;;;16.70;51.10;;;;;;4981373;28;20050;-65
2023/04/24 10:37:54;;;;;;;2.13;0.93;;;16.60;50.40;;;;;;4983199;28;20022;-63
2023/04/24 10:40:29;;;;;;;3.47;1.20;;;16.50;50.50;;;;;;4979237;28;20074;-64
2023/04/24 10:42:56;;;;;;;2.08;0.82;;;16.50;50.90;;;;;;4980227;28;20066;-64
2023/04/24 10:45:23;;;;;;;1.98;0.95;;;16.40;51.10;;;;;;4985419;28;20106;-63
2023/04/24 10:48:00;;;;;;;2.67;1.08;;;16.40;50.90;;;;;;4984053;28;20433;-64
2023/04/24 10:50:41;;;;;;;3.10;1.30;;;16.50;50.50;;;;;;4984892;28;20082;-64
2023/04/24 10:53:15;;;;;;;3.35;1.02;;;16.50;48.90;;;;;;4981259;28;20039;-65
2023/04/24 10:55:50;;;;;;;2.30;0.88;;;16.40;48.40;;;;;;4981505;28;21279;-65
2023/04/24 10:58:16;;;;;;;3.40;0.90;;;16.30;48.20;;;;;;4981091;28;20030;-63
2023/04/24 11:00:46;;;;;;;1.00;0.88;;;16.10;48.10;;;;;;4983987;28;20042;-64
2023/04/24 11:03:41;;;;;;;2.55;1.00;;;16.00;49.10;;;;;;4990401;28;20434;-64
2023/04/24 11:06:08;;;;;;;1.98;1.25;;;15.90;48.50;;;;;;4981565;28;20045;-63
2023/04/24 11:08:44;;;;;;;1.77;0.88;;;15.80;48.70;;;;;;4989296;28;20105;-64
2023/04/24 11:11:13;;;;;;;3.75;0.95;;;15.70;49.60;;;;;;4976605;28;20414;-66
2023/04/24 11:13:54;;;;;;;0.93;0.80;;;15.70;49.90;;;;;;4986402;28;20026;-66
2023/04/24 11:16:29;;;;;;;1.45;0.90;;;15.80;48.80;;;;;;4981069;28;20043;-66
2023/04/24 11:19:14;;;;;;;1.83;0.90;;;15.90;49.90;;;;;;4988816;28;20050;-66
2023/04/24 11:21:44;;;;;;;1.25;0.90;;;16.00;48.80;;;;;;4980034;28;20097;-63
2023/04/24 11:24:23;;;;;;;2.60;0.90;;;16.20;48.70;;;;;;4981511;28;20030;-66
2023/04/24 11:27:11;;;;;;;1.08;0.82;;;16.30;47.40;;;;;;4991824;28;20062;-64
2023/04/24 11:29:46;;;;;;;3.33;0.80;;;16.30;46.80;;;;;;4978988;28;20058;-63
2023/04/24 11:32:36;;;;;;;3.72;1.08;;;16.20;46.00;;;;;;4982384;28;20033;-65
2023/04/24 11:35:18;;;;;;;2.20;1.00;;;16.10;46.60;;;;;;4985450;28;20406;-63
2023/04/24 11:37:48;;;;;;;1.70;1.00;;;16.10;46.80;;;;;;4990408;28;20052;-64
2023/04/24 11:40:15;;;;;;;2.25;1.10;;;16.00;46.00;;;;;;4907691;28;20050;-63
2023/04/24 11:42:45;;;;;;;1.00;0.85;;;16.00;46.70;;;;;;4984379;28;20023;-64
2023/04/24 11:45:14;;;;;;;2.35;0.90;;;15.90;47.10;;;;;;4983310;28;20031;-64
2023/04/24 11:47:40;;;;;;;1.40;0.80;;;15.90;47.60;;;;;;4987344;28;20078;-64
2023/04/24 11:50:08;;;;;;;1.42;1.00;;;15.90;47.50;;;;;;4988195;28;20045;-66
2023/04/24 11:52:38;;;;;;;1.52;1.10;;;15.80;46.30;;;;;;4992204;28;20031;-65
2023/04/24 11:55:06;;;;;;;1.63;0.85;;;15.80;46.40;;;;;;4994319;28;20035;-64
2023/04/24 11:57:36;;;;;;;1.40;0.90;;;15.70;46.80;;;;;;4989620;28;20133;-65
2023/04/24 12:00:04;;;;;;;1.50;0.60;;;15.60;46.50;;;;;;4981539;28;20085;-65
2023/04/24 12:02:30;;;;;;;3.30;0.88;;;15.60;46.50;;;;;;4985746;28;20027;-66
2023/04/24 12:04:56;;;;;;;1.60;0.80;;;15.40;46.40;;;;;;4986682;28;20026;-66
2023/04/24 12:07:24;;;;;;;1.00;0.70;;;15.30;46.50;;;;;;4995475;28;20087;-64
2023/04/24 12:09:57;;;;;;;1.13;0.70;;;15.20;46.60;;;;;;4988385;28;20031;-64
2023/04/24 12:12:26;;;;;;;0.95;0.70;;;15.10;46.70;;;;;;4987342;28;20023;-65
2023/04/24 12:14:56;;;;;;;1.30;0.70;;;15.10;47.30;;;;;;4979717;28;20043;-64
2023/04/24 12:17:32;;;;;;;1.98;0.80;;;15.10;47.00;;;;;;4985375;28;20050;-65
2023/04/24 12:20:04;;;;;;;1.27;0.85;;;15.10;46.70;;;;;;4990395;28;20058;-62
2023/04/24 12:22:54;;;;;;;1.38;0.50;;;15.20;47.70;;;;;;4983940;28;20015;-64
2023/04/24 12:25:25;;;;;;;2.88;0.70;;;15.30;47.00;;;;;;4986046;28;20027;-65
2023/04/24 12:28:04;;;;;;;0.90;0.60;;;15.40;46.70;;;;;;4991535;28;20027;-64
2023/04/24 12:30:36;;;;;;;0.70;0.60;;;15.40;47.10;;;;;;4985033;28;20054;-63
2023/04/24 12:33:02;;;;;;;1.17;0.70;;;15.40;46.40;;;;;;4987362;28;20041;-65
2023/04/24 12:35:31;;;;;;;1.70;1.23;;;15.50;46.70;;;;;;4986466;28;20062;-65
2023/04/24 12:38:07;;;;;;;1.05;0.85;;;15.50;47.50;;;;;;4982800;28;20458;-64
2023/04/24 12:40:32;;;;;;;1.48;0.60;;;15.50;46.30;;;;;;4986828;28;20089;-64
2023/04/24 12:42:58;;;;;;;1.50;0.80;;;15.50;46.20;;;;;;4986030;28;20022;-63
2023/04/24 12:45:25;;;;;;;0.90;0.80;;;15.50;45.60;;;;;;4987889;28;20038;-65
2023/04/24 12:47:50;;;;;;;0.80;0.60;;;15.50;45.40;;;;;;4992466;28;20029;-63